sensor_id;sensor_type;location;lat;lon;timestamp;P1;durP1;ratioP1;P2;durP2;ratioP2
47413;SDS011;33163;0.000;0.000;2022-09-09T00:02:19;1.73;;;0.80;;
47413;SDS011;33163;0.000;0.000;2022-09-09T00:04:49;4.30;;;0.77;;
47413;SDS011;33163;0.000;0.000;2022-09-09T00:07:25;2.05;;;0.77;;
47413;SDS011;33163;0.000;0.000;2022-09-09T00:10:03;2.05;;;1.05;;
47413;SDS011;33163;0.000;0.000;2022-09-09T00:12:41;2.38;;;1.05;;
47413;SDS011;33163;0.000;0.000;2022-09-09T00:15:18;5.10;;;1.25;;
47413;SDS011;33163;0.000;0.000;2022-09-09T00:17:50;1.85;;;0.88;;
47413;SDS011;33163;0.000;0.000;2022-09-09T00:22:56;2.65;;;0.98;;
47413;SDS011;33163;0.000;0.000;2022-09-09T00:25:31;3.10;;;1.15;;
47413;SDS011;33163;0.000;0.000;2022-09-09T00:28:04;3.72;;;1.05;;
47413;SDS011;33163;0.000;0.000;2022-09-09T00:30:39;1.90;;;0.80;;
47413;SDS011;33163;0.000;0.000;2022-09-09T00:33:09;4.93;;;1.17;;
47413;SDS011;33163;0.000;0.000;2022-09-09T00:35:42;2.72;;;1.30;;
47413;SDS011;33163;0.000;0.000;2022-09-09T00:38:13;1.33;;;0.80;;
47413;SDS011;33163;0.000;0.000;2022-09-09T00:40:45;2.53;;;0.80;;
47413;SDS011;33163;0.000;0.000;2022-09-09T00:43:24;1.42;;;0.70;;
47413;SDS011;33163;0.000;0.000;2022-09-09T00:48:47;2.55;;;0.75;;
47413;SDS011;33163;0.000;0.000;2022-09-09T00:51:22;2.58;;;1.10;;
47413;SDS011;33163;0.000;0.000;2022-09-09T00:56:33;2.10;;;0.88;;
47413;SDS011;33163;0.000;0.000;2022-09-09T00:59:08;2.03;;;0.88;;
47413;SDS011;33163;0.000;0.000;2022-09-09T01:01:45;3.20;;;0.93;;
47413;SDS011;33163;0.000;0.000;2022-09-09T01:04:14;2.95;;;1.00;;
47413;SDS011;33163;0.000;0.000;2022-09-09T01:06:47;2.10;;;0.98;;
47413;SDS011;33163;0.000;0.000;2022-09-09T01:09:21;2.45;;;1.13;;
47413;SDS011;33163;0.000;0.000;2022-09-09T01:11:55;2.47;;;1.00;;
47413;SDS011;33163;0.000;0.000;2022-09-09T01:14:29;1.40;;;0.80;;
47413;SDS011;33163;0.000;0.000;2022-09-09T01:17:05;3.22;;;0.80;;
47413;SDS011;33163;0.000;0.000;2022-09-09T01:19:40;3.35;;;0.95;;
47413;SDS011;33163;0.000;0.000;2022-09-09T01:22:21;0.90;;;0.70;;
47413;SDS011;33163;0.000;0.000;2022-09-09T01:25:07;2.67;;;0.82;;
47413;SDS011;33163;0.000;0.000;2022-09-09T01:27:50;2.53;;;0.93;;
47413;SDS011;33163;0.000;0.000;2022-09-09T01:30:18;3.33;;;0.90;;
47413;SDS011;33163;0.000;0.000;2022-09-09T01:32:47;1.73;;;0.68;;
47413;SDS011;33163;0.000;0.000;2022-09-09T01:35:18;2.63;;;0.82;;
47413;SDS011;33163;0.000;0.000;2022-09-09T01:37:55;1.98;;;1.02;;
47413;SDS011;33163;0.000;0.000;2022-09-09T01:40:22;1.90;;;0.80;;
47413;SDS011;33163;0.000;0.000;2022-09-09T01:42:51;2.70;;;0.80;;
47413;SDS011;33163;0.000;0.000;2022-09-09T01:45:19;3.10;;;0.90;;
47413;SDS011;33163;0.000;0.000;2022-09-09T01:47:46;1.75;;;1.00;;
47413;SDS011;33163;0.000;0.000;2022-09-09T01:50:14;2.92;;;0.88;;
47413;SDS011;33163;0.000;0.000;2022-09-09T01:52:42;2.40;;;0.80;;
47413;SDS011;33163;0.000;0.000;2022-09-09T01:55:11;2.55;;;1.17;;
47413;SDS011;33163;0.000;0.000;2022-09-09T01:57:39;2.50;;;0.80;;
47413;SDS011;33163;0.000;0.000;2022-09-09T02:00:14;2.87;;;0.90;;
47413;SDS011;33163;0.000;0.000;2022-09-09T02:02:44;3.08;;;1.00;;
47413;SDS011;33163;0.000;0.000;2022-09-09T02:05:24;1.27;;;0.60;;
47413;SDS011;33163;0.000;0.000;2022-09-09T02:08:03;2.65;;;0.93;;
47413;SDS011;33163;0.000;0.000;2022-09-09T02:10:34;3.40;;;1.02;;
47413;SDS011;33163;0.000;0.000;2022-09-09T02:13:12;1.90;;;0.88;;
47413;SDS011;33163;0.000;0.000;2022-09-09T02:15:43;2.15;;;0.85;;
47413;SDS011;33163;0.000;0.000;2022-09-09T02:18:19;1.75;;;0.75;;
47413;SDS011;33163;0.000;0.000;2022-09-09T02:20:50;2.40;;;0.68;;
47413;SDS011;33163;0.000;0.000;2022-09-09T02:23:18;1.50;;;0.90;;
47413;SDS011;33163;0.000;0.000;2022-09-09T02:25:46;1.27;;;0.80;;
47413;SDS011;33163;0.000;0.000;2022-09-09T02:28:16;2.05;;;0.80;;
47413;SDS011;33163;0.000;0.000;2022-09-09T02:30:50;1.75;;;0.85;;
47413;SDS011;33163;0.000;0.000;2022-09-09T02:33:20;1.10;;;0.70;;
47413;SDS011;33163;0.000;0.000;2022-09-09T02:35:50;3.33;;;0.85;;
47413;SDS011;33163;0.000;0.000;2022-09-09T02:38:18;1.73;;;1.02;;
47413;SDS011;33163;0.000;0.000;2022-09-09T02:40:47;1.98;;;0.60;;
47413;SDS011;33163;0.000;0.000;2022-09-09T02:43:14;2.13;;;0.65;;
47413;SDS011;33163;0.000;0.000;2022-09-09T02:45:44;3.97;;;1.00;;
47413;SDS011;33163;0.000;0.000;2022-09-09T02:48:20;3.08;;;0.90;;
47413;SDS011;33163;0.000;0.000;2022-09-09T02:50:59;1.85;;;0.52;;
47413;SDS011;33163;0.000;0.000;2022-09-09T02:53:33;3.05;;;1.10;;
47413;SDS011;33163;0.000;0.000;2022-09-09T02:56:10;1.63;;;0.70;;
47413;SDS011;33163;0.000;0.000;2022-09-09T02:58:41;2.45;;;0.80;;
47413;SDS011;33163;0.000;0.000;2022-09-09T03:01:08;1.15;;;0.75;;
47413;SDS011;33163;0.000;0.000;2022-09-09T03:03:37;1.80;;;0.57;;
47413;SDS011;33163;0.000;0.000;2022-09-09T03:06:06;2.33;;;0.70;;
47413;SDS011;33163;0.000;0.000;2022-09-09T03:08:33;2.15;;;0.95;;
47413;SDS011;33163;0.000;0.000;2022-09-09T03:11:00;1.75;;;0.55;;
47413;SDS011;33163;0.000;0.000;2022-09-09T03:13:27;1.98;;;0.85;;
47413;SDS011;33163;0.000;0.000;2022-09-09T03:15:54;2.33;;;1.05;;
47413;SDS011;33163;0.000;0.000;2022-09-09T03:18:20;3.13;;;0.93;;
47413;SDS011;33163;0.000;0.000;2022-09-09T03:20:49;1.85;;;0.70;;
47413;SDS011;33163;0.000;0.000;2022-09-09T03:23:16;1.15;;;0.65;;
47413;SDS011;33163;0.000;0.000;2022-09-09T03:25:46;1.63;;;0.60;;
47413;SDS011;33163;0.000;0.000;2022-09-09T03:28:13;1.98;;;0.65;;
47413;SDS011;33163;0.000;0.000;2022-09-09T03:30:40;2.10;;;0.93;;
47413;SDS011;33163;0.000;0.000;2022-09-09T03:33:07;2.60;;;0.93;;
47413;SDS011;33163;0.000;0.000;2022-09-09T03:35:34;4.22;;;0.70;;
47413;SDS011;33163;0.000;0.000;2022-09-09T03:38:02;1.25;;;0.70;;
47413;SDS011;33163;0.000;0.000;2022-09-09T03:40:29;2.25;;;0.80;;
47413;SDS011;33163;0.000;0.000;2022-09-09T03:42:56;1.75;;;0.85;;
47413;SDS011;33163;0.000;0.000;2022-09-09T03:45:23;3.08;;;1.10;;
47413;SDS011;33163;0.000;0.000;2022-09-09T03:47:50;0.95;;;0.65;;
47413;SDS011;33163;0.000;0.000;2022-09-09T03:50:16;1.55;;;0.73;;
47413;SDS011;33163;0.000;0.000;2022-09-09T03:52:43;2.33;;;0.80;;
47413;SDS011;33163;0.000;0.000;2022-09-09T03:55:13;1.38;;;0.80;;
47413;SDS011;33163;0.000;0.000;2022-09-09T03:57:40;2.38;;;0.70;;
47413;SDS011;33163;0.000;0.000;2022-09-09T04:00:07;1.38;;;0.63;;
47413;SDS011;33163;0.000;0.000;2022-09-09T04:02:35;4.05;;;0.70;;
47413;SDS011;33163;0.000;0.000;2022-09-09T04:05:01;1.73;;;0.80;;
47413;SDS011;33163;0.000;0.000;2022-09-09T04:07:31;2.40;;;0.80;;
47413;SDS011;33163;0.000;0.000;2022-09-09T04:09:58;2.35;;;0.63;;
47413;SDS011;33163;0.000;0.000;2022-09-09T04:12:26;1.85;;;0.60;;
47413;SDS011;33163;0.000;0.000;2022-09-09T04:14:53;2.67;;;0.90;;
47413;SDS011;33163;0.000;0.000;2022-09-09T04:17:19;1.88;;;0.73;;
47413;SDS011;33163;0.000;0.000;2022-09-09T04:19:46;6.03;;;1.25;;
47413;SDS011;33163;0.000;0.000;2022-09-09T04:22:13;1.35;;;0.70;;
47413;SDS011;33163;0.000;0.000;2022-09-09T04:24:41;2.38;;;0.90;;
47413;SDS011;33163;0.000;0.000;2022-09-09T04:27:07;2.50;;;0.75;;
47413;SDS011;33163;0.000;0.000;2022-09-09T04:29:35;2.50;;;0.73;;
47413;SDS011;33163;0.000;0.000;2022-09-09T04:32:02;1.92;;;0.68;;
47413;SDS011;33163;0.000;0.000;2022-09-09T04:34:29;1.83;;;0.80;;
47413;SDS011;33163;0.000;0.000;2022-09-09T04:36:56;1.80;;;0.70;;
47413;SDS011;33163;0.000;0.000;2022-09-09T04:39:23;2.35;;;0.95;;
47413;SDS011;33163;0.000;0.000;2022-09-09T04:41:50;4.45;;;0.90;;
47413;SDS011;33163;0.000;0.000;2022-09-09T04:44:18;2.92;;;1.10;;
47413;SDS011;33163;0.000;0.000;2022-09-09T04:46:46;0.77;;;0.65;;
47413;SDS011;33163;0.000;0.000;2022-09-09T04:49:13;1.85;;;0.85;;
47413;SDS011;33163;0.000;0.000;2022-09-09T04:51:40;1.55;;;0.68;;
47413;SDS011;33163;0.000;0.000;2022-09-09T04:54:07;1.92;;;0.70;;
47413;SDS011;33163;0.000;0.000;2022-09-09T04:56:33;2.67;;;0.75;;
47413;SDS011;33163;0.000;0.000;2022-09-09T04:59:01;2.08;;;1.00;;
47413;SDS011;33163;0.000;0.000;2022-09-09T05:01:28;1.27;;;0.82;;
47413;SDS011;33163;0.000;0.000;2022-09-09T05:03:56;3.33;;;1.10;;
47413;SDS011;33163;0.000;0.000;2022-09-09T05:06:23;4.07;;;1.08;;
47413;SDS011;33163;0.000;0.000;2022-09-09T05:08:50;2.53;;;0.80;;
47413;SDS011;33163;0.000;0.000;2022-09-09T05:11:18;1.42;;;0.70;;
47413;SDS011;33163;0.000;0.000;2022-09-09T05:13:47;2.85;;;1.05;;
47413;SDS011;33163;0.000;0.000;2022-09-09T05:16:15;2.20;;;0.80;;
47413;SDS011;33163;0.000;0.000;2022-09-09T05:18:42;2.63;;;0.60;;
47413;SDS011;33163;0.000;0.000;2022-09-09T05:21:13;2.97;;;0.90;;
47413;SDS011;33163;0.000;0.000;2022-09-09T05:23:40;3.00;;;0.80;;
47413;SDS011;33163;0.000;0.000;2022-09-09T05:26:09;2.38;;;0.98;;
47413;SDS011;33163;0.000;0.000;2022-09-09T05:28:39;3.80;;;0.70;;
47413;SDS011;33163;0.000;0.000;2022-09-09T05:31:06;2.45;;;0.80;;
47413;SDS011;33163;0.000;0.000;2022-09-09T05:33:36;1.63;;;0.68;;
47413;SDS011;33163;0.000;0.000;2022-09-09T05:36:06;1.88;;;0.75;;
47413;SDS011;33163;0.000;0.000;2022-09-09T05:38:35;3.10;;;0.77;;
47413;SDS011;33163;0.000;0.000;2022-09-09T05:41:02;3.53;;;1.10;;
47413;SDS011;33163;0.000;0.000;2022-09-09T05:43:29;3.63;;;1.00;;
47413;SDS011;33163;0.000;0.000;2022-09-09T05:46:00;1.77;;;1.10;;
47413;SDS011;33163;0.000;0.000;2022-09-09T05:48:29;6.05;;;1.38;;
47413;SDS011;33163;0.000;0.000;2022-09-09T05:50:57;8.77;;;1.30;;
47413;SDS011;33163;0.000;0.000;2022-09-09T05:53:24;7.75;;;1.63;;
47413;SDS011;33163;0.000;0.000;2022-09-09T05:55:59;5.13;;;1.40;;
47413;SDS011;33163;0.000;0.000;2022-09-09T05:58:28;5.53;;;1.25;;
47413;SDS011;33163;0.000;0.000;2022-09-09T06:01:02;4.05;;;1.40;;
47413;SDS011;33163;0.000;0.000;2022-09-09T06:03:31;9.48;;;2.00;;
47413;SDS011;33163;0.000;0.000;2022-09-09T06:05:59;5.13;;;1.60;;
47413;SDS011;33163;0.000;0.000;2022-09-09T06:08:26;5.72;;;1.80;;
47413;SDS011;33163;0.000;0.000;2022-09-09T06:10:53;5.38;;;1.17;;
47413;SDS011;33163;0.000;0.000;2022-09-09T06:13:29;5.90;;;1.42;;
47413;SDS011;33163;0.000;0.000;2022-09-09T06:15:56;7.72;;;2.00;;
47413;SDS011;33163;0.000;0.000;2022-09-09T06:18:23;5.65;;;1.38;;
47413;SDS011;33163;0.000;0.000;2022-09-09T06:20:54;4.70;;;1.10;;
47413;SDS011;33163;0.000;0.000;2022-09-09T06:23:22;3.92;;;1.20;;
47413;SDS011;33163;0.000;0.000;2022-09-09T06:25:48;8.55;;;1.88;;
47413;SDS011;33163;0.000;0.000;2022-09-09T06:28:17;8.95;;;1.58;;
47413;SDS011;33163;0.000;0.000;2022-09-09T06:30:44;6.65;;;1.77;;
47413;SDS011;33163;0.000;0.000;2022-09-09T06:33:12;2.85;;;1.23;;
47413;SDS011;33163;0.000;0.000;2022-09-09T06:35:38;7.63;;;1.40;;
47413;SDS011;33163;0.000;0.000;2022-09-09T06:38:05;4.53;;;1.42;;
47413;SDS011;33163;0.000;0.000;2022-09-09T06:40:33;4.03;;;1.15;;
47413;SDS011;33163;0.000;0.000;2022-09-09T06:43:00;7.35;;;1.40;;
47413;SDS011;33163;0.000;0.000;2022-09-09T06:45:28;6.28;;;1.45;;
47413;SDS011;33163;0.000;0.000;2022-09-09T06:47:56;6.28;;;1.50;;
47413;SDS011;33163;0.000;0.000;2022-09-09T06:50:22;8.75;;;1.52;;
47413;SDS011;33163;0.000;0.000;2022-09-09T06:52:49;7.40;;;2.17;;
47413;SDS011;33163;0.000;0.000;2022-09-09T06:55:16;4.45;;;1.55;;
47413;SDS011;33163;0.000;0.000;2022-09-09T06:57:43;4.80;;;1.40;;
47413;SDS011;33163;0.000;0.000;2022-09-09T07:00:11;5.60;;;1.65;;
47413;SDS011;33163;0.000;0.000;2022-09-09T07:02:40;4.22;;;1.48;;
47413;SDS011;33163;0.000;0.000;2022-09-09T07:05:07;4.78;;;1.35;;
47413;SDS011;33163;0.000;0.000;2022-09-09T07:07:34;5.50;;;1.08;;
47413;SDS011;33163;0.000;0.000;2022-09-09T07:10:02;4.13;;;1.27;;
47413;SDS011;33163;0.000;0.000;2022-09-09T07:12:30;4.00;;;1.30;;
47413;SDS011;33163;0.000;0.000;2022-09-09T07:14:57;3.22;;;1.42;;
47413;SDS011;33163;0.000;0.000;2022-09-09T07:17:23;5.93;;;1.30;;
47413;SDS011;33163;0.000;0.000;2022-09-09T07:19:51;5.65;;;1.70;;
47413;SDS011;33163;0.000;0.000;2022-09-09T07:22:18;8.05;;;1.67;;
47413;SDS011;33163;0.000;0.000;2022-09-09T07:24:45;5.10;;;1.83;;
47413;SDS011;33163;0.000;0.000;2022-09-09T07:27:12;7.35;;;1.95;;
47413;SDS011;33163;0.000;0.000;2022-09-09T07:29:38;4.53;;;1.67;;
47413;SDS011;33163;0.000;0.000;2022-09-09T07:32:05;2.95;;;1.17;;
47413;SDS011;33163;0.000;0.000;2022-09-09T07:34:32;3.50;;;1.42;;
47413;SDS011;33163;0.000;0.000;2022-09-09T07:37:00;6.22;;;2.03;;
47413;SDS011;33163;0.000;0.000;2022-09-09T07:39:27;7.80;;;1.42;;
47413;SDS011;33163;0.000;0.000;2022-09-09T07:41:54;5.57;;;1.70;;
47413;SDS011;33163;0.000;0.000;2022-09-09T07:44:21;4.57;;;1.83;;
47413;SDS011;33163;0.000;0.000;2022-09-09T07:46:51;7.60;;;2.17;;
47413;SDS011;33163;0.000;0.000;2022-09-09T07:49:18;6.70;;;1.40;;
47413;SDS011;33163;0.000;0.000;2022-09-09T07:51:46;6.13;;;1.73;;
47413;SDS011;33163;0.000;0.000;2022-09-09T07:54:16;7.85;;;1.42;;
47413;SDS011;33163;0.000;0.000;2022-09-09T07:56:48;5.82;;;1.65;;
47413;SDS011;33163;0.000;0.000;2022-09-09T07:59:15;4.82;;;1.75;;
47413;SDS011;33163;0.000;0.000;2022-09-09T08:01:43;7.90;;;1.50;;
47413;SDS011;33163;0.000;0.000;2022-09-09T08:04:12;2.55;;;1.10;;
47413;SDS011;33163;0.000;0.000;2022-09-09T08:06:41;8.40;;;1.88;;
47413;SDS011;33163;0.000;0.000;2022-09-09T08:09:09;6.90;;;1.85;;
47413;SDS011;33163;0.000;0.000;2022-09-09T08:11:38;4.35;;;1.80;;
47413;SDS011;33163;0.000;0.000;2022-09-09T08:14:06;5.10;;;1.70;;
47413;SDS011;33163;0.000;0.000;2022-09-09T08:16:34;7.82;;;1.75;;
47413;SDS011;33163;0.000;0.000;2022-09-09T08:19:03;5.55;;;1.58;;
47413;SDS011;33163;0.000;0.000;2022-09-09T08:21:31;12.45;;;2.03;;
47413;SDS011;33163;0.000;0.000;2022-09-09T08:23:59;6.65;;;1.83;;
47413;SDS011;33163;0.000;0.000;2022-09-09T08:26:28;7.63;;;1.75;;
47413;SDS011;33163;0.000;0.000;2022-09-09T08:28:58;11.32;;;2.47;;
47413;SDS011;33163;0.000;0.000;2022-09-09T08:31:26;8.02;;;1.67;;
47413;SDS011;33163;0.000;0.000;2022-09-09T08:33:55;8.07;;;1.83;;
47413;SDS011;33163;0.000;0.000;2022-09-09T08:36:24;5.45;;;1.15;;
47413;SDS011;33163;0.000;0.000;2022-09-09T08:38:53;4.15;;;1.30;;
47413;SDS011;33163;0.000;0.000;2022-09-09T08:44:11;6.57;;;1.92;;
47413;SDS011;33163;0.000;0.000;2022-09-09T08:46:47;8.95;;;2.38;;
47413;SDS011;33163;0.000;0.000;2022-09-09T08:49:25;6.55;;;1.73;;
47413;SDS011;33163;0.000;0.000;2022-09-09T08:52:16;9.60;;;1.88;;
47413;SDS011;33163;0.000;0.000;2022-09-09T08:54:47;3.85;;;1.30;;
47413;SDS011;33163;0.000;0.000;2022-09-09T08:57:16;4.90;;;1.60;;
47413;SDS011;33163;0.000;0.000;2022-09-09T08:59:47;4.43;;;1.50;;
47413;SDS011;33163;0.000;0.000;2022-09-09T09:02:17;5.20;;;1.67;;
47413;SDS011;33163;0.000;0.000;2022-09-09T09:04:55;6.47;;;1.50;;
47413;SDS011;33163;0.000;0.000;2022-09-09T09:07:32;4.50;;;1.60;;
47413;SDS011;33163;0.000;0.000;2022-09-09T09:10:10;5.50;;;1.00;;
47413;SDS011;33163;0.000;0.000;2022-09-09T09:12:42;6.53;;;1.52;;
47413;SDS011;33163;0.000;0.000;2022-09-09T09:15:16;8.30;;;2.20;;
47413;SDS011;33163;0.000;0.000;2022-09-09T09:17:46;7.15;;;1.85;;
47413;SDS011;33163;0.000;0.000;2022-09-09T09:20:15;3.60;;;1.25;;
47413;SDS011;33163;0.000;0.000;2022-09-09T09:22:47;7.45;;;1.80;;
47413;SDS011;33163;0.000;0.000;2022-09-09T09:25:18;6.80;;;1.90;;
47413;SDS011;33163;0.000;0.000;2022-09-09T09:27:49;4.22;;;1.38;;
47413;SDS011;33163;0.000;0.000;2022-09-09T09:30:22;6.13;;;1.67;;
47413;SDS011;33163;0.000;0.000;2022-09-09T09:32:53;4.13;;;1.70;;
47413;SDS011;33163;0.000;0.000;2022-09-09T09:35:22;6.85;;;1.67;;
47413;SDS011;33163;0.000;0.000;2022-09-09T09:37:49;3.13;;;1.33;;
47413;SDS011;33163;0.000;0.000;2022-09-09T09:40:17;6.60;;;1.33;;
47413;SDS011;33163;0.000;0.000;2022-09-09T09:42:51;6.53;;;1.55;;
47413;SDS011;33163;0.000;0.000;2022-09-09T09:45:28;8.52;;;2.15;;
47413;SDS011;33163;0.000;0.000;2022-09-09T09:47:59;6.90;;;1.42;;
47413;SDS011;33163;0.000;0.000;2022-09-09T09:50:28;5.82;;;1.52;;
47413;SDS011;33163;0.000;0.000;2022-09-09T09:52:55;7.65;;;2.05;;
47413;SDS011;33163;0.000;0.000;2022-09-09T09:55:23;6.05;;;1.63;;
47413;SDS011;33163;0.000;0.000;2022-09-09T09:57:52;5.13;;;1.45;;
47413;SDS011;33163;0.000;0.000;2022-09-09T10:00:20;6.13;;;1.80;;
47413;SDS011;33163;0.000;0.000;2022-09-09T10:02:49;7.20;;;1.85;;
47413;SDS011;33163;0.000;0.000;2022-09-09T10:05:18;5.38;;;1.92;;
47413;SDS011;33163;0.000;0.000;2022-09-09T10:07:46;3.90;;;1.38;;
47413;SDS011;33163;0.000;0.000;2022-09-09T10:10:15;5.25;;;1.23;;
47413;SDS011;33163;0.000;0.000;2022-09-09T10:12:49;3.30;;;1.25;;
47413;SDS011;33163;0.000;0.000;2022-09-09T10:15:36;4.43;;;1.48;;
47413;SDS011;33163;0.000;0.000;2022-09-09T10:18:13;3.50;;;1.30;;
47413;SDS011;33163;0.000;0.000;2022-09-09T10:20:50;6.53;;;1.50;;
47413;SDS011;33163;0.000;0.000;2022-09-09T10:23:28;5.40;;;1.80;;
47413;SDS011;33163;0.000;0.000;2022-09-09T10:26:22;3.50;;;1.40;;
47413;SDS011;33163;0.000;0.000;2022-09-09T10:29:05;6.97;;;1.65;;
47413;SDS011;33163;0.000;0.000;2022-09-09T10:31:44;6.20;;;1.48;;
47413;SDS011;33163;0.000;0.000;2022-09-09T10:34:23;5.72;;;1.40;;
47413;SDS011;33163;0.000;0.000;2022-09-09T10:37:07;7.65;;;1.65;;
47413;SDS011;33163;0.000;0.000;2022-09-09T10:39:47;8.10;;;1.50;;
47413;SDS011;33163;0.000;0.000;2022-09-09T10:42:17;4.65;;;1.92;;
47413;SDS011;33163;0.000;0.000;2022-09-09T10:44:57;10.90;;;2.28;;
47413;SDS011;33163;0.000;0.000;2022-09-09T10:47:40;73.13;;;36.20;;
47413;SDS011;33163;0.000;0.000;2022-09-09T10:50:33;90.97;;;46.00;;
47413;SDS011;33163;0.000;0.000;2022-09-09T10:53:18;110.43;;;55.40;;
47413;SDS011;33163;0.000;0.000;2022-09-09T10:55:56;115.40;;;57.00;;
47413;SDS011;33163;0.000;0.000;2022-09-09T10:58:31;109.28;;;55.78;;
47413;SDS011;33163;0.000;0.000;2022-09-09T11:01:06;90.60;;;47.63;;
47413;SDS011;33163;0.000;0.000;2022-09-09T11:03:41;86.63;;;46.03;;
47413;SDS011;33163;0.000;0.000;2022-09-09T11:06:12;96.25;;;44.65;;
47413;SDS011;33163;0.000;0.000;2022-09-09T11:08:42;88.47;;;45.83;;
47413;SDS011;33163;0.000;0.000;2022-09-09T11:11:09;69.00;;;38.38;;
47413;SDS011;33163;0.000;0.000;2022-09-09T11:13:44;79.72;;;41.50;;
47413;SDS011;33163;0.000;0.000;2022-09-09T11:16:19;86.00;;;41.70;;
47413;SDS011;33163;0.000;0.000;2022-09-09T11:18:52;70.20;;;38.97;;
47413;SDS011;33163;0.000;0.000;2022-09-09T11:21:26;80.80;;;38.67;;
47413;SDS011;33163;0.000;0.000;2022-09-09T11:23:57;70.30;;;36.78;;
47413;SDS011;33163;0.000;0.000;2022-09-09T11:26:30;67.43;;;35.45;;
47413;SDS011;33163;0.000;0.000;2022-09-09T11:29:06;62.38;;;33.58;;
47413;SDS011;33163;0.000;0.000;2022-09-09T11:31:56;62.65;;;33.40;;
47413;SDS011;33163;0.000;0.000;2022-09-09T11:34:38;67.63;;;33.47;;
47413;SDS011;33163;0.000;0.000;2022-09-09T11:37:20;59.67;;;30.55;;
47413;SDS011;33163;0.000;0.000;2022-09-09T11:40:07;56.80;;;31.08;;
47413;SDS011;33163;0.000;0.000;2022-09-09T11:42:41;54.13;;;30.48;;
47413;SDS011;33163;0.000;0.000;2022-09-09T11:45:09;51.20;;;26.88;;
47413;SDS011;33163;0.000;0.000;2022-09-09T11:47:53;55.55;;;29.08;;
47413;SDS011;33163;0.000;0.000;2022-09-09T11:50:31;49.58;;;26.15;;
47413;SDS011;33163;0.000;0.000;2022-09-09T11:53:04;55.80;;;28.27;;
47413;SDS011;33163;0.000;0.000;2022-09-09T11:55:45;49.28;;;26.02;;
47413;SDS011;33163;0.000;0.000;2022-09-09T11:58:17;47.97;;;25.98;;
47413;SDS011;33163;0.000;0.000;2022-09-09T12:00:46;82.88;;;53.28;;
47413;SDS011;33163;0.000;0.000;2022-09-09T12:06:09;134.98;;;83.43;;
47413;SDS011;33163;0.000;0.000;2022-09-09T12:08:41;119.40;;;71.72;;
47413;SDS011;33163;0.000;0.000;2022-09-09T12:11:11;120.22;;;74.15;;
47413;SDS011;33163;0.000;0.000;2022-09-09T12:13:38;113.15;;;69.57;;
47413;SDS011;33163;0.000;0.000;2022-09-09T12:16:27;103.95;;;64.78;;
47413;SDS011;33163;0.000;0.000;2022-09-09T12:19:06;105.50;;;64.82;;
47413;SDS011;33163;0.000;0.000;2022-09-09T12:21:42;103.78;;;61.55;;
47413;SDS011;33163;0.000;0.000;2022-09-09T12:24:16;101.45;;;61.40;;
47413;SDS011;33163;0.000;0.000;2022-09-09T12:26:52;92.20;;;58.33;;
47413;SDS011;33163;0.000;0.000;2022-09-09T12:29:27;92.32;;;55.35;;
47413;SDS011;33163;0.000;0.000;2022-09-09T12:32:00;94.78;;;56.67;;
47413;SDS011;33163;0.000;0.000;2022-09-09T12:34:34;85.68;;;52.60;;
47413;SDS011;33163;0.000;0.000;2022-09-09T12:37:05;82.35;;;50.42;;
47413;SDS011;33163;0.000;0.000;2022-09-09T12:39:42;81.97;;;49.40;;
47413;SDS011;33163;0.000;0.000;2022-09-09T12:42:17;81.00;;;48.10;;
47413;SDS011;33163;0.000;0.000;2022-09-09T12:44:51;75.45;;;46.60;;
47413;SDS011;33163;0.000;0.000;2022-09-09T12:47:18;79.50;;;48.03;;
47413;SDS011;33163;0.000;0.000;2022-09-09T12:49:47;71.57;;;43.65;;
47413;SDS011;33163;0.000;0.000;2022-09-09T12:52:17;73.13;;;46.72;;
47413;SDS011;33163;0.000;0.000;2022-09-09T12:54:50;66.95;;;40.38;;
47413;SDS011;33163;0.000;0.000;2022-09-09T12:57:18;68.60;;;42.72;;
47413;SDS011;33163;0.000;0.000;2022-09-09T12:59:47;63.90;;;38.78;;
47413;SDS011;33163;0.000;0.000;2022-09-09T13:02:18;65.05;;;38.88;;
47413;SDS011;33163;0.000;0.000;2022-09-09T13:04:47;64.70;;;36.65;;
47413;SDS011;33163;0.000;0.000;2022-09-09T13:07:15;58.92;;;34.72;;
47413;SDS011;33163;0.000;0.000;2022-09-09T13:09:43;57.83;;;35.08;;
47413;SDS011;33163;0.000;0.000;2022-09-09T13:12:13;52.22;;;33.25;;
47413;SDS011;33163;0.000;0.000;2022-09-09T13:14:42;54.05;;;31.83;;
47413;SDS011;33163;0.000;0.000;2022-09-09T13:17:15;50.00;;;30.90;;
47413;SDS011;33163;0.000;0.000;2022-09-09T13:19:45;47.90;;;29.17;;
47413;SDS011;33163;0.000;0.000;2022-09-09T13:22:19;47.55;;;30.33;;
47413;SDS011;33163;0.000;0.000;2022-09-09T13:24:47;50.10;;;29.42;;
47413;SDS011;33163;0.000;0.000;2022-09-09T13:27:29;45.65;;;28.20;;
47413;SDS011;33163;0.000;0.000;2022-09-09T13:29:58;41.78;;;27.05;;
47413;SDS011;33163;0.000;0.000;2022-09-09T13:32:26;40.22;;;26.20;;
47413;SDS011;33163;0.000;0.000;2022-09-09T13:34:54;42.25;;;26.35;;
47413;SDS011;33163;0.000;0.000;2022-09-09T13:37:23;42.25;;;24.20;;
47413;SDS011;33163;0.000;0.000;2022-09-09T13:39:56;37.80;;;24.95;;
47413;SDS011;33163;0.000;0.000;2022-09-09T13:42:24;40.78;;;23.65;;
47413;SDS011;33163;0.000;0.000;2022-09-09T13:44:54;36.60;;;22.45;;
47413;SDS011;33163;0.000;0.000;2022-09-09T13:47:26;38.38;;;21.45;;
47413;SDS011;33163;0.000;0.000;2022-09-09T13:49:58;34.42;;;21.20;;
47413;SDS011;33163;0.000;0.000;2022-09-09T13:52:35;34.65;;;20.40;;
47413;SDS011;33163;0.000;0.000;2022-09-09T13:55:02;35.60;;;22.05;;
47413;SDS011;33163;0.000;0.000;2022-09-09T13:57:29;34.33;;;19.42;;
47413;SDS011;33163;0.000;0.000;2022-09-09T13:59:57;31.52;;;19.30;;
47413;SDS011;33163;0.000;0.000;2022-09-09T14:02:24;31.08;;;18.88;;
47413;SDS011;33163;0.000;0.000;2022-09-09T14:04:50;29.35;;;18.88;;
47413;SDS011;33163;0.000;0.000;2022-09-09T14:07:20;28.65;;;18.00;;
47413;SDS011;33163;0.000;0.000;2022-09-09T14:09:47;31.63;;;18.92;;
47413;SDS011;33163;0.000;0.000;2022-09-09T14:12:15;30.73;;;17.52;;
47413;SDS011;33163;0.000;0.000;2022-09-09T14:14:43;32.45;;;17.50;;
47413;SDS011;33163;0.000;0.000;2022-09-09T14:17:11;27.60;;;17.02;;
47413;SDS011;33163;0.000;0.000;2022-09-09T14:19:39;31.33;;;16.60;;
47413;SDS011;33163;0.000;0.000;2022-09-09T14:22:07;25.60;;;16.55;;
47413;SDS011;33163;0.000;0.000;2022-09-09T14:24:34;23.13;;;14.77;;
47413;SDS011;33163;0.000;0.000;2022-09-09T14:27:01;25.15;;;15.23;;
47413;SDS011;33163;0.000;0.000;2022-09-09T14:29:27;25.83;;;15.77;;
47413;SDS011;33163;0.000;0.000;2022-09-09T14:31:54;21.77;;;14.32;;
47413;SDS011;33163;0.000;0.000;2022-09-09T14:34:22;25.00;;;14.02;;
47413;SDS011;33163;0.000;0.000;2022-09-09T14:36:49;14.23;;;6.82;;
47413;SDS011;33163;0.000;0.000;2022-09-09T14:39:16;16.05;;;4.72;;
47413;SDS011;33163;0.000;0.000;2022-09-09T14:41:43;11.32;;;5.10;;
47413;SDS011;33163;0.000;0.000;2022-09-09T14:44:10;11.65;;;4.57;;
47413;SDS011;33163;0.000;0.000;2022-09-09T14:46:37;10.65;;;4.32;;
47413;SDS011;33163;0.000;0.000;2022-09-09T14:49:04;16.98;;;4.35;;
47413;SDS011;33163;0.000;0.000;2022-09-09T14:51:32;10.50;;;3.30;;
47413;SDS011;33163;0.000;0.000;2022-09-09T14:53:59;13.55;;;4.53;;
47413;SDS011;33163;0.000;0.000;2022-09-09T14:56:27;6.97;;;2.65;;
47413;SDS011;33163;0.000;0.000;2022-09-09T14:58:56;10.45;;;2.70;;
47413;SDS011;33163;0.000;0.000;2022-09-09T15:01:25;11.40;;;2.47;;
47413;SDS011;33163;0.000;0.000;2022-09-09T15:03:53;7.78;;;2.42;;
47413;SDS011;33163;0.000;0.000;2022-09-09T15:06:23;8.63;;;2.33;;
47413;SDS011;33163;0.000;0.000;2022-09-09T15:08:52;7.88;;;2.35;;
47413;SDS011;33163;0.000;0.000;2022-09-09T15:11:22;8.98;;;2.30;;
47413;SDS011;33163;0.000;0.000;2022-09-09T15:13:53;4.15;;;1.60;;
47413;SDS011;33163;0.000;0.000;2022-09-09T15:16:20;7.07;;;2.28;;
47413;SDS011;33163;0.000;0.000;2022-09-09T15:18:50;11.65;;;2.33;;
47413;SDS011;33163;0.000;0.000;2022-09-09T15:21:19;5.55;;;1.60;;
47413;SDS011;33163;0.000;0.000;2022-09-09T15:23:47;6.97;;;1.67;;
47413;SDS011;33163;0.000;0.000;2022-09-09T15:26:16;7.50;;;1.98;;
47413;SDS011;33163;0.000;0.000;2022-09-09T15:28:44;9.98;;;1.92;;